sensor_id;sensor_type;location;lat;lon;timestamp;temperature;humidity
69009;SHT31;56065;52.472;13.380;2023-04-01T00:01:04;11.90;87.14
69009;SHT31;56065;52.472;13.380;2023-04-01T00:03:30;11.93;87.12
69009;SHT31;56065;52.472;13.380;2023-04-01T00:05:58;11.93;87.14
69009;SHT31;56065;52.472;13.380;2023-04-01T00:08:25;11.97;87.04
69009;SHT31;56065;52.472;13.380;2023-04-01T00:10:51;11.97;87.01
69009;SHT31;56065;52.472;13.380;2023-04-01T00:13:17;11.99;86.95
69009;SHT31;56065;52.472;13.380;2023-04-01T00:15:42;12.01;86.70
69009;SHT31;56065;52.472;13.380;2023-04-01T00:18:08;12.02;86.91
69009;SHT31;56065;52.472;13.380;2023-04-01T00:20:33;11.99;87.07
69009;SHT31;56065;52.472;13.380;2023-04-01T00:22:59;12.05;86.80
69009;SHT31;56065;52.472;13.380;2023-04-01T00:25:25;12.04;86.77
69009;SHT31;56065;52.472;13.380;2023-04-01T00:27:50;12.10;86.87
69009;SHT31;56065;52.472;13.380;2023-04-01T00:30:16;12.10;86.67
69009;SHT31;56065;52.472;13.380;2023-04-01T00:32:42;12.14;86.54
69009;SHT31;56065;52.472;13.380;2023-04-01T00:35:08;12.11;86.71
69009;SHT31;56065;52.472;13.380;2023-04-01T00:37:35;12.14;86.51
69009;SHT31;56065;52.472;13.380;2023-04-01T00:40:03;12.11;86.30
69009;SHT31;56065;52.472;13.380;2023-04-01T00:42:28;11.93;86.58
69009;SHT31;56065;52.472;13.380;2023-04-01T00:44:55;11.88;86.78
69009;SHT31;56065;52.472;13.380;2023-04-01T00:47:21;11.57;87.68
69009;SHT31;56065;52.472;13.380;2023-04-01T00:49:49;11.53;88.13
69009;SHT31;56065;52.472;13.380;2023-04-01T00:52:19;11.74;87.38
69009;SHT31;56065;52.472;13.380;2023-04-01T00:54:49;11.64;87.87
69009;SHT31;56065;52.472;13.380;2023-04-01T00:57:19;11.80;87.66
69009;SHT31;56065;52.472;13.380;2023-04-01T00:59:48;11.80;87.55
69009;SHT31;56065;52.472;13.380;2023-04-01T01:02:18;11.80;87.66
69009;SHT31;56065;52.472;13.380;2023-04-01T01:04:44;11.90;87.35
69009;SHT31;56065;52.472;13.380;2023-04-01T01:12:45;12.02;87.18
69009;SHT31;56065;52.472;13.380;2023-04-01T01:17:57;11.98;87.03
69009;SHT31;56065;52.472;13.380;2023-04-01T01:25:34;11.99;87.22
69009;SHT31;56065;52.472;13.380;2023-04-01T01:30:51;11.85;87.75
69009;SHT31;56065;52.472;13.380;2023-04-01T01:33:53;11.88;87.62
69009;SHT31;56065;52.472;13.380;2023-04-01T01:36:29;11.99;87.34
69009;SHT31;56065;52.472;13.380;2023-04-01T01:38:57;12.08;87.30
69009;SHT31;56065;52.472;13.380;2023-04-01T01:41:23;12.11;87.21
69009;SHT31;56065;52.472;13.380;2023-04-01T01:43:53;12.11;87.17
69009;SHT31;56065;52.472;13.380;2023-04-01T01:46:22;12.17;87.05
69009;SHT31;56065;52.472;13.380;2023-04-01T01:48:49;12.11;87.12
69009;SHT31;56065;52.472;13.380;2023-04-01T01:51:17;12.14;87.10
69009;SHT31;56065;52.472;13.380;2023-04-01T01:53:43;12.11;87.25
69009;SHT31;56065;52.472;13.380;2023-04-01T01:56:10;12.14;87.14
69009;SHT31;56065;52.472;13.380;2023-04-01T01:58:43;12.18;87.22
69009;SHT31;56065;52.472;13.380;2023-04-01T02:01:13;12.20;87.13
69009;SHT31;56065;52.472;13.380;2023-04-01T02:03:40;12.22;86.95
69009;SHT31;56065;52.472;13.380;2023-04-01T02:06:09;12.31;86.80
69009;SHT31;56065;52.472;13.380;2023-04-01T02:11:12;12.22;86.60
69009;SHT31;56065;52.472;13.380;2023-04-01T02:13:49;12.24;86.41
69009;SHT31;56065;52.472;13.380;2023-04-01T02:16:41;12.24;86.39
69009;SHT31;56065;52.472;13.380;2023-04-01T02:19:09;12.25;86.70
69009;SHT31;56065;52.472;13.380;2023-04-01T02:21:36;12.24;86.73
69009;SHT31;56065;52.472;13.380;2023-04-01T02:24:05;12.25;86.57
69009;SHT31;56065;52.472;13.380;2023-04-01T02:26:34;12.22;86.76
69009;SHT31;56065;52.472;13.380;2023-04-01T02:29:00;12.20;86.57
69009;SHT31;56065;52.472;13.380;2023-04-01T02:31:27;12.22;86.63
69009;SHT31;56065;52.472;13.380;2023-04-01T02:33:53;12.20;86.58
69009;SHT31;56065;52.472;13.380;2023-04-01T02:36:18;12.12;86.54
69009;SHT31;56065;52.472;13.380;2023-04-01T02:38:45;12.10;86.55
69009;SHT31;56065;52.472;13.380;2023-04-01T02:41:10;12.05;86.45
69009;SHT31;56065;52.472;13.380;2023-04-01T02:43:36;11.97;86.51
69009;SHT31;56065;52.472;13.380;2023-04-01T02:46:02;11.91;86.66
69009;SHT31;56065;52.472;13.380;2023-04-01T02:48:28;11.84;86.84
69009;SHT31;56065;52.472;13.380;2023-04-01T02:50:53;11.80;86.84
69009;SHT31;56065;52.472;13.380;2023-04-01T02:53:19;11.74;86.97
69009;SHT31;56065;52.472;13.380;2023-04-01T02:55:45;11.75;86.99
69009;SHT31;56065;52.472;13.380;2023-04-01T02:58:10;11.77;87.03
69009;SHT31;56065;52.472;13.380;2023-04-01T03:00:36;11.75;87.08
69009;SHT31;56065;52.472;13.380;2023-04-01T03:03:01;11.80;87.06
69009;SHT31;56065;52.472;13.380;2023-04-01T03:05:28;11.84;87.09
69009;SHT31;56065;52.472;13.380;2023-04-01T03:07:53;11.80;87.13
69009;SHT31;56065;52.472;13.380;2023-04-01T03:10:19;11.83;87.09
69009;SHT31;56065;52.472;13.380;2023-04-01T03:12:44;11.88;87.05
69009;SHT31;56065;52.472;13.380;2023-04-01T03:15:12;11.88;87.05
69009;SHT31;56065;52.472;13.380;2023-04-01T03:17:39;11.91;87.17
69009;SHT31;56065;52.472;13.380;2023-04-01T03:20:05;11.94;87.22
69009;SHT31;56065;52.472;13.380;2023-04-01T03:22:31;11.97;87.20
69009;SHT31;56065;52.472;13.380;2023-04-01T03:24:56;11.99;87.17
69009;SHT31;56065;52.472;13.380;2023-04-01T03:27:22;12.04;86.93
69009;SHT31;56065;52.472;13.380;2023-04-01T03:29:48;12.02;86.88
69009;SHT31;56065;52.472;13.380;2023-04-01T03:32:13;12.01;87.01
69009;SHT31;56065;52.472;13.380;2023-04-01T03:34:39;12.04;86.91
69009;SHT31;56065;52.472;13.380;2023-04-01T03:37:04;12.08;86.87
69009;SHT31;56065;52.472;13.380;2023-04-01T03:39:31;12.08;86.85
69009;SHT31;56065;52.472;13.380;2023-04-01T03:41:56;12.11;86.80
69009;SHT31;56065;52.472;13.380;2023-04-01T03:44:22;12.10;86.84
69009;SHT31;56065;52.472;13.380;2023-04-01T03:46:47;12.10;86.77
69009;SHT31;56065;52.472;13.380;2023-04-01T03:49:12;12.14;86.68
69009;SHT31;56065;52.472;13.380;2023-04-01T03:51:42;12.17;86.78
69009;SHT31;56065;52.472;13.380;2023-04-01T03:54:09;12.14;86.67
69009;SHT31;56065;52.472;13.380;2023-04-01T03:56:34;12.15;86.70
69009;SHT31;56065;52.472;13.380;2023-04-01T03:59:04;12.18;86.76
69009;SHT31;56065;52.472;13.380;2023-04-01T04:01:30;12.21;86.67
69009;SHT31;56065;52.472;13.380;2023-04-01T04:03:56;12.21;86.65
69009;SHT31;56065;52.472;13.380;2023-04-01T04:06:22;12.22;86.61
69009;SHT31;56065;52.472;13.380;2023-04-01T04:08:48;12.22;86.68
69009;SHT31;56065;52.472;13.380;2023-04-01T04:11:13;12.25;86.81
69009;SHT31;56065;52.472;13.380;2023-04-01T04:13:39;12.28;86.65
69009;SHT31;56065;52.472;13.380;2023-04-01T04:16:05;12.26;86.64
69009;SHT31;56065;52.472;13.380;2023-04-01T04:18:30;12.28;86.65
69009;SHT31;56065;52.472;13.380;2023-04-01T04:20:55;12.28;86.70
69009;SHT31;56065;52.472;13.380;2023-04-01T04:23:21;12.29;86.81
69009;SHT31;56065;52.472;13.380;2023-04-01T04:26:05;12.29;86.72
69009;SHT31;56065;52.472;13.380;2023-04-01T04:28:30;12.34;86.54
69009;SHT31;56065;52.472;13.380;2023-04-01T04:30:56;12.29;86.58
69009;SHT31;56065;52.472;13.380;2023-04-01T04:33:22;12.26;86.57
69009;SHT31;56065;52.472;13.380;2023-04-01T04:35:48;12.28;86.66
69009;SHT31;56065;52.472;13.380;2023-04-01T04:38:14;12.31;86.59
69009;SHT31;56065;52.472;13.380;2023-04-01T04:40:40;12.29;86.69
69009;SHT31;56065;52.472;13.380;2023-04-01T04:43:06;12.32;86.65
69009;SHT31;56065;52.472;13.380;2023-04-01T04:45:31;12.32;86.59
69009;SHT31;56065;52.472;13.380;2023-04-01T04:47:57;12.34;86.36
69009;SHT31;56065;52.472;13.380;2023-04-01T04:50:23;12.26;86.51
69009;SHT31;56065;52.472;13.380;2023-04-01T04:52:48;12.28;86.68
69009;SHT31;56065;52.472;13.380;2023-04-01T04:55:14;12.29;86.59
69009;SHT31;56065;52.472;13.380;2023-04-01T04:57:40;12.34;86.49
69009;SHT31;56065;52.472;13.380;2023-04-01T05:00:06;12.31;86.53
69009;SHT31;56065;52.472;13.380;2023-04-01T05:02:32;12.34;86.50
69009;SHT31;56065;52.472;13.380;2023-04-01T05:04:58;12.34;86.52
69009;SHT31;56065;52.472;13.380;2023-04-01T05:07:23;12.39;86.51
69009;SHT31;56065;52.472;13.380;2023-04-01T05:09:48;12.39;86.63
69009;SHT31;56065;52.472;13.380;2023-04-01T05:12:14;12.35;86.77
69009;SHT31;56065;52.472;13.380;2023-04-01T05:14:39;12.35;86.87
69009;SHT31;56065;52.472;13.380;2023-04-01T05:17:08;12.38;86.76
69009;SHT31;56065;52.472;13.380;2023-04-01T05:19:34;12.41;86.70
69009;SHT31;56065;52.472;13.380;2023-04-01T05:22:00;12.45;86.70
69009;SHT31;56065;52.472;13.380;2023-04-01T05:24:25;12.46;86.65
69009;SHT31;56065;52.472;13.380;2023-04-01T05:26:50;12.43;86.64
69009;SHT31;56065;52.472;13.380;2023-04-01T05:29:16;12.48;86.65
69009;SHT31;56065;52.472;13.380;2023-04-01T05:31:41;12.52;86.72
69009;SHT31;56065;52.472;13.380;2023-04-01T05:34:06;12.57;86.46
69009;SHT31;56065;52.472;13.380;2023-04-01T05:36:32;12.62;86.25
69009;SHT31;56065;52.472;13.380;2023-04-01T05:38:57;12.63;86.32
69009;SHT31;56065;52.472;13.380;2023-04-01T05:41:23;12.67;86.23
69009;SHT31;56065;52.472;13.380;2023-04-01T05:43:48;12.73;85.95
69009;SHT31;56065;52.472;13.380;2023-04-01T05:46:13;12.73;86.07
69009;SHT31;56065;52.472;13.380;2023-04-01T05:48:39;12.69;86.19
69009;SHT31;56065;52.472;13.380;2023-04-01T05:51:04;12.76;85.95
69009;SHT31;56065;52.472;13.380;2023-04-01T05:53:30;12.46;86.45
69009;SHT31;56065;52.472;13.380;2023-04-01T05:55:55;12.42;86.71
69009;SHT31;56065;52.472;13.380;2023-04-01T05:58:20;12.43;86.66
69009;SHT31;56065;52.472;13.380;2023-04-01T06:00:46;12.45;86.86
69009;SHT31;56065;52.472;13.380;2023-04-01T06:03:11;12.50;86.74
69009;SHT31;56065;52.472;13.380;2023-04-01T06:05:41;12.55;86.33
69009;SHT31;56065;52.472;13.380;2023-04-01T06:08:16;12.55;86.38
69009;SHT31;56065;52.472;13.380;2023-04-01T06:16:35;12.66;86.34
69009;SHT31;56065;52.472;13.380;2023-04-01T06:33:23;12.35;86.55
69009;SHT31;56065;52.472;13.380;2023-04-01T06:35:58;12.50;86.58
69009;SHT31;56065;52.472;13.380;2023-04-01T06:41:06;12.42;86.70
69009;SHT31;56065;52.472;13.380;2023-04-01T06:46:47;12.49;87.04
69009;SHT31;56065;52.472;13.380;2023-04-01T06:54:30;12.05;87.25
69009;SHT31;56065;52.472;13.380;2023-04-01T06:57:03;12.01;87.85
69009;SHT31;56065;52.472;13.380;2023-04-01T06:59:33;12.01;87.83
69009;SHT31;56065;52.472;13.380;2023-04-01T07:02:18;12.06;87.49
69009;SHT31;56065;52.472;13.380;2023-04-01T07:04:50;12.12;87.82
69009;SHT31;56065;52.472;13.380;2023-04-01T07:07:27;12.11;87.70
69009;SHT31;56065;52.472;13.380;2023-04-01T07:09:56;12.22;87.70
69009;SHT31;56065;52.472;13.380;2023-04-01T07:12:29;12.43;87.34
69009;SHT31;56065;52.472;13.380;2023-04-01T07:15:12;12.69;86.63
69009;SHT31;56065;52.472;13.380;2023-04-01T07:17:39;12.96;86.59
69009;SHT31;56065;52.472;13.380;2023-04-01T07:20:29;13.28;86.04
69009;SHT31;56065;52.472;13.380;2023-04-01T07:23:00;13.15;85.03
69009;SHT31;56065;52.472;13.380;2023-04-01T07:25:45;13.30;85.05
69009;SHT31;56065;52.472;13.380;2023-04-01T07:28:14;13.43;84.92
69009;SHT31;56065;52.472;13.380;2023-04-01T07:36:14;13.96;83.20
69009;SHT31;56065;52.472;13.380;2023-04-01T07:52:35;15.22;79.79
69009;SHT31;56065;52.472;13.380;2023-04-01T07:55:13;15.50;79.76
69009;SHT31;56065;52.472;13.380;2023-04-01T08:00:19;16.41;78.76
69009;SHT31;56065;52.472;13.380;2023-04-01T08:03:24;17.23;77.04
69009;SHT31;56065;52.472;13.380;2023-04-01T08:19:46;19.36;69.19
69009;SHT31;56065;52.472;13.380;2023-04-01T08:22:26;20.28;69.29
69009;SHT31;56065;52.472;13.380;2023-04-01T08:24:54;21.00;67.28
69009;SHT31;56065;52.472;13.380;2023-04-01T08:31:34;21.67;65.34
69009;SHT31;56065;52.472;13.380;2023-04-01T08:33:30;20.85;65.95
69009;SHT31;56065;52.472;13.380;2023-04-01T08:36:21;20.07;67.15
69009;SHT31;56065;52.472;13.380;2023-04-01T08:39:03;19.19;68.56
69009;SHT31;56065;52.472;13.380;2023-04-01T08:47:27;17.78;72.77
69009;SHT31;56065;52.472;13.380;2023-04-01T09:01:51;15.90;75.40
69009;SHT31;56065;52.472;13.380;2023-04-01T09:07:19;15.47;76.00
69009;SHT31;56065;52.472;13.380;2023-04-01T09:10:21;15.24;76.89
69009;SHT31;56065;52.472;13.380;2023-04-01T09:13:27;15.05;77.83
69009;SHT31;56065;52.472;13.380;2023-04-01T09:27:29;14.56;79.92
69009;SHT31;56065;52.472;13.380;2023-04-01T09:35:55;14.17;80.52
69009;SHT31;56065;52.472;13.380;2023-04-01T09:46:37;13.98;81.57
69009;SHT31;56065;52.472;13.380;2023-04-01T09:49:29;14.06;81.12
69009;SHT31;56065;52.472;13.380;2023-04-01T09:52:18;14.09;80.97
69009;SHT31;56065;52.472;13.380;2023-04-01T09:55:13;14.02;81.30
69009;SHT31;56065;52.472;13.380;2023-04-01T10:23:32;14.59;80.13
69009;SHT31;56065;52.472;13.380;2023-04-01T10:37:31;14.44;78.50
69009;SHT31;56065;52.472;13.380;2023-04-01T10:48:23;14.29;79.51
69009;SHT31;56065;52.472;13.380;2023-04-01T10:57:02;14.24;79.36
69009;SHT31;56065;52.472;13.380;2023-04-01T11:08:09;14.43;78.82
69009;SHT31;56065;52.472;13.380;2023-04-01T11:16:12;14.73;78.45
69009;SHT31;56065;52.472;13.380;2023-04-01T11:35:20;14.94;76.82
69009;SHT31;56065;52.472;13.380;2023-04-01T11:37:58;14.87;76.93
69009;SHT31;56065;52.472;13.380;2023-04-01T11:43:54;14.88;76.72
69009;SHT31;56065;52.472;13.380;2023-04-01T12:08:51;13.90;77.96
69009;SHT31;56065;52.472;13.380;2023-04-01T12:24:47;13.64;79.12
69009;SHT31;56065;52.472;13.380;2023-04-01T12:27:34;13.62;78.75
69009;SHT31;56065;52.472;13.380;2023-04-01T12:35:13;13.45;78.49
69009;SHT31;56065;52.472;13.380;2023-04-01T12:40:45;13.20;79.90
69009;SHT31;56065;52.472;13.380;2023-04-01T12:49:05;12.93;79.17
69009;SHT31;56065;52.472;13.380;2023-04-01T12:51:47;13.02;79.37
69009;SHT31;56065;52.472;13.380;2023-04-01T12:57:16;13.10;79.47
69009;SHT31;56065;52.472;13.380;2023-04-01T13:05:37;12.97;79.18
69009;SHT31;56065;52.472;13.380;2023-04-01T13:08:43;12.97;79.79
69009;SHT31;56065;52.472;13.380;2023-04-01T13:14:36;13.14;79.03
69009;SHT31;56065;52.472;13.380;2023-04-01T13:17:22;13.11;79.10
69009;SHT31;56065;52.472;13.380;2023-04-01T13:23:09;13.02;79.03
69009;SHT31;56065;52.472;13.380;2023-04-01T13:25:51;13.10;79.17
69009;SHT31;56065;52.472;13.380;2023-04-01T13:28:25;13.17;78.76
69009;SHT31;56065;52.472;13.380;2023-04-01T13:31:08;13.21;78.34
69009;SHT31;56065;52.472;13.380;2023-04-01T13:33:45;13.02;78.35
69009;SHT31;56065;52.472;13.380;2023-04-01T13:44:22;13.33;78.25
69009;SHT31;56065;52.472;13.380;2023-04-01T13:50:17;13.23;77.59
69009;SHT31;56065;52.472;13.380;2023-04-01T13:55:39;13.14;78.55
69009;SHT31;56065;52.472;13.380;2023-04-01T14:03:47;12.87;78.55
69009;SHT31;56065;52.472;13.380;2023-04-01T14:14:31;12.45;78.72
69009;SHT31;56065;52.472;13.380;2023-04-01T14:28:03;12.15;79.64
69009;SHT31;56065;52.472;13.380;2023-04-01T14:30:42;12.08;79.59
69009;SHT31;56065;52.472;13.380;2023-04-01T14:33:23;12.04;79.32
69009;SHT31;56065;52.472;13.380;2023-04-01T14:39:15;11.85;79.90
69009;SHT31;56065;52.472;13.380;2023-04-01T14:50:15;11.60;79.68
69009;SHT31;56065;52.472;13.380;2023-04-01T14:53:30;11.66;79.40
69009;SHT31;56065;52.472;13.380;2023-04-01T14:55:33;11.53;79.74
69009;SHT31;56065;52.472;13.380;2023-04-01T14:58:16;11.62;79.56
69009;SHT31;56065;52.472;13.380;2023-04-01T15:03:32;11.59;79.97
69009;SHT31;56065;52.472;13.380;2023-04-01T15:11:42;11.42;79.82
69009;SHT31;56065;52.472;13.380;2023-04-01T15:17:14;11.49;79.76
69009;SHT31;56065;52.472;13.380;2023-04-01T15:20:10;11.39;80.19
69009;SHT31;56065;52.472;13.380;2023-04-01T15:22:51;11.27;79.93
69009;SHT31;56065;52.472;13.380;2023-04-01T15:25:35;11.30;79.88
69009;SHT31;56065;52.472;13.380;2023-04-01T16:03:18;10.79;80.08
69009;SHT31;56065;52.472;13.380;2023-04-01T16:24:54;10.51;80.66
69009;SHT31;56065;52.472;13.380;2023-04-01T16:27:46;10.51;80.42
69009;SHT31;56065;52.472;13.380;2023-04-01T16:30:42;10.45;80.59
69009;SHT31;56065;52.472;13.380;2023-04-01T16:36:01;10.25;81.06
69009;SHT31;56065;52.472;13.380;2023-04-01T16:38:38;10.30;81.05
69009;SHT31;56065;52.472;13.380;2023-04-01T16:44:22;10.03;80.86
69009;SHT31;56065;52.472;13.380;2023-04-01T16:46:52;10.00;81.21
69009;SHT31;56065;52.472;13.380;2023-04-01T16:49:39;9.96;81.06
69009;SHT31;56065;52.472;13.380;2023-04-01T16:59:55;9.90;81.07
69009;SHT31;56065;52.472;13.380;2023-04-01T17:02:33;9.82;80.79
69009;SHT31;56065;52.472;13.380;2023-04-01T17:05:05;9.72;81.29
69009;SHT31;56065;52.472;13.380;2023-04-01T17:10:31;9.58;81.12
69009;SHT31;56065;52.472;13.380;2023-04-01T17:15:42;9.48;81.63
69009;SHT31;56065;52.472;13.380;2023-04-01T17:20:58;9.31;81.70
69009;SHT31;56065;52.472;13.380;2023-04-01T17:23:30;9.24;81.66
69009;SHT31;56065;52.472;13.380;2023-04-01T17:26:04;9.22;81.35
69009;SHT31;56065;52.472;13.380;2023-04-01T17:28:59;9.24;81.64
69009;SHT31;56065;52.472;13.380;2023-04-01T17:37:23;9.24;81.87
69009;SHT31;56065;52.472;13.380;2023-04-01T17:40:12;9.18;81.66
69009;SHT31;56065;52.472;13.380;2023-04-01T17:42:46;9.11;81.29
69009;SHT31;56065;52.472;13.380;2023-04-01T17:45:24;9.07;81.69
69009;SHT31;56065;52.472;13.380;2023-04-01T17:56:11;8.88;81.90
69009;SHT31;56065;52.472;13.380;2023-04-01T17:58:58;8.85;82.18
69009;SHT31;56065;52.472;13.380;2023-04-01T18:01:36;8.73;82.26
69009;SHT31;56065;52.472;13.380;2023-04-01T18:04:15;8.67;81.95
69009;SHT31;56065;52.472;13.380;2023-04-01T18:17:24;8.63;82.47
69009;SHT31;56065;52.472;13.380;2023-04-01T18:22:23;8.52;82.68
69009;SHT31;56065;52.472;13.380;2023-04-01T18:30:32;8.38;82.40
69009;SHT31;56065;52.472;13.380;2023-04-01T18:36:39;8.36;82.35
69009;SHT31;56065;52.472;13.380;2023-04-01T18:39:17;8.32;82.65
69009;SHT31;56065;52.472;13.380;2023-04-01T18:41:59;8.35;82.73
69009;SHT31;56065;52.472;13.380;2023-04-01T18:44:45;8.33;82.35
69009;SHT31;56065;52.472;13.380;2023-04-01T18:52:27;8.33;82.42
69009;SHT31;56065;52.472;13.380;2023-04-01T18:57:50;8.31;82.64
69009;SHT31;56065;52.472;13.380;2023-04-01T19:00:21;8.33;82.76
69009;SHT31;56065;52.472;13.380;2023-04-01T19:05:45;8.36;82.60
69009;SHT31;56065;52.472;13.380;2023-04-01T19:21:35;8.22;82.69
69009;SHT31;56065;52.472;13.380;2023-04-01T19:38:12;7.81;82.49
69009;SHT31;56065;52.472;13.380;2023-04-01T19:56:58;7.81;82.45
69009;SHT31;56065;52.472;13.380;2023-04-01T20:07:52;7.88;83.78
69009;SHT31;56065;52.472;13.380;2023-04-01T20:10:32;7.66;83.23
69009;SHT31;56065;52.472;13.380;2023-04-01T20:13:08;7.77;82.53
69009;SHT31;56065;52.472;13.380;2023-04-01T20:15:43;7.75;83.00
69009;SHT31;56065;52.472;13.380;2023-04-01T20:18:16;7.75;83.15
69009;SHT31;56065;52.472;13.380;2023-04-01T20:20:59;7.75;83.06
69009;SHT31;56065;52.472;13.380;2023-04-01T20:23:35;7.77;82.36
69009;SHT31;56065;52.472;13.380;2023-04-01T20:26:08;7.67;83.30
69009;SHT31;56065;52.472;13.380;2023-04-01T20:28:44;7.63;82.94
69009;SHT31;56065;52.472;13.380;2023-04-01T20:46:51;7.53;82.60
69009;SHT31;56065;52.472;13.380;2023-04-01T20:55:13;7.29;82.07
69009;SHT31;56065;52.472;13.380;2023-04-01T20:57:52;7.26;82.29
69009;SHT31;56065;52.472;13.380;2023-04-01T21:03:55;7.18;82.46
69009;SHT31;56065;52.472;13.380;2023-04-01T21:06:39;7.10;82.62
69009;SHT31;56065;52.472;13.380;2023-04-01T21:14:54;7.08;81.79
69009;SHT31;56065;52.472;13.380;2023-04-01T21:22:56;7.01;82.47
69009;SHT31;56065;52.472;13.380;2023-04-01T21:30:48;6.88;81.97
69009;SHT31;56065;52.472;13.380;2023-04-01T21:44:52;6.79;81.86
69009;SHT31;56065;52.472;13.380;2023-04-01T22:04:06;6.58;81.32
69009;SHT31;56065;52.472;13.380;2023-04-01T22:06:41;6.63;81.61
69009;SHT31;56065;52.472;13.380;2023-04-01T22:09:18;6.65;81.20
69009;SHT31;56065;52.472;13.380;2023-04-01T22:11:51;6.54;81.18
69009;SHT31;56065;52.472;13.380;2023-04-01T22:14:40;6.64;81.02
69009;SHT31;56065;52.472;13.380;2023-04-01T22:17:26;6.52;81.87
69009;SHT31;56065;52.472;13.380;2023-04-01T22:22:55;6.51;80.70
69009;SHT31;56065;52.472;13.380;2023-04-01T22:30:31;6.55;80.40
69009;SHT31;56065;52.472;13.380;2023-04-01T22:33:16;6.55;80.30
69009;SHT31;56065;52.472;13.380;2023-04-01T22:41:49;6.54;80.52
69009;SHT31;56065;52.472;13.380;2023-04-01T22:50:18;6.52;80.16
69009;SHT31;56065;52.472;13.380;2023-04-01T22:52:47;6.47;80.09
69009;SHT31;56065;52.472;13.380;2023-04-01T22:55:23;6.52;79.83
69009;SHT31;56065;52.472;13.380;2023-04-01T22:58:09;6.58;80.36
69009;SHT31;56065;52.472;13.380;2023-04-01T23:00:43;6.58;80.09
69009;SHT31;56065;52.472;13.380;2023-04-01T23:03:18;6.50;80.48
69009;SHT31;56065;52.472;13.380;2023-04-01T23:05:55;6.48;80.59
69009;SHT31;56065;52.472;13.380;2023-04-01T23:11:12;6.47;79.53
69009;SHT31;56065;52.472;13.380;2023-04-01T23:13:50;6.42;79.27
69009;SHT31;56065;52.472;13.380;2023-04-01T23:16:23;6.50;79.51
69009;SHT31;56065;52.472;13.380;2023-04-01T23:18:52;6.47;79.62
69009;SHT31;56065;52.472;13.380;2023-04-01T23:21:30;6.51;79.54
69009;SHT31;56065;52.472;13.380;2023-04-01T23:24:23;6.55;79.46
69009;SHT31;56065;52.472;13.380;2023-04-01T23:27:11;6.48;79.92
69009;SHT31;56065;52.472;13.380;2023-04-01T23:29:38;6.52;79.18
69009;SHT31;56065;52.472;13.380;2023-04-01T23:32:33;6.48;79.38
69009;SHT31;56065;52.472;13.380;2023-04-01T23:34:59;6.45;79.89
69009;SHT31;56065;52.472;13.380;2023-04-01T23:37:25;6.41;79.58
69009;SHT31;56065;52.472;13.380;2023-04-01T23:39:53;6.45;79.43
69009;SHT31;56065;52.472;13.380;2023-04-01T23:42:28;6.44;79.34
69009;SHT31;56065;52.472;13.380;2023-04-01T23:44:57;6.48;79.74
69009;SHT31;56065;52.472;13.380;2023-04-01T23:49:58;6.47;78.84
69009;SHT31;56065;52.472;13.380;2023-04-01T23:52:27;6.47;78.86
69009;SHT31;56065;52.472;13.380;2023-04-01T23:55:00;6.45;78.67
69009;SHT31;56065;52.472;13.380;2023-04-01T23:57:32;6.34;78.60
